sensor_id;sensor_type;location;lat;lon;timestamp;P1;durP1;ratioP1;P2;durP2;ratioP2
16878;SDS011;8556;52.218;9.884;2023-05-14T00:00:47;10.20;;;7.33;;
16878;SDS011;8556;52.218;9.884;2023-05-14T00:03:14;9.03;;;6.23;;
16878;SDS011;8556;52.218;9.884;2023-05-14T00:05:41;10.07;;;7.53;;
16878;SDS011;8556;52.218;9.884;2023-05-14T00:08:07;9.43;;;6.97;;
16878;SDS011;8556;52.218;9.884;2023-05-14T00:10:34;8.83;;;6.87;;
16878;SDS011;8556;52.218;9.884;2023-05-14T00:13:03;11.53;;;8.33;;
16878;SDS011;8556;52.218;9.884;2023-05-14T00:15:30;11.63;;;8.50;;
16878;SDS011;8556;52.218;9.884;2023-05-14T00:17:57;11.00;;;8.10;;
16878;SDS011;8556;52.218;9.884;2023-05-14T00:20:24;11.90;;;8.03;;
16878;SDS011;8556;52.218;9.884;2023-05-14T00:22:52;13.00;;;7.47;;
16878;SDS011;8556;52.218;9.884;2023-05-14T00:25:19;8.33;;;6.60;;
16878;SDS011;8556;52.218;9.884;2023-05-14T00:27:46;9.93;;;6.43;;
16878;SDS011;8556;52.218;9.884;2023-05-14T00:30:14;8.37;;;5.67;;
16878;SDS011;8556;52.218;9.884;2023-05-14T00:32:41;8.93;;;6.87;;
16878;SDS011;8556;52.218;9.884;2023-05-14T00:35:08;7.93;;;6.53;;
16878;SDS011;8556;52.218;9.884;2023-05-14T00:37:35;9.37;;;7.17;;
16878;SDS011;8556;52.218;9.884;2023-05-14T00:40:02;9.90;;;6.87;;
16878;SDS011;8556;52.218;9.884;2023-05-14T00:42:30;10.10;;;7.50;;
16878;SDS011;8556;52.218;9.884;2023-05-14T00:44:57;11.37;;;7.63;;
16878;SDS011;8556;52.218;9.884;2023-05-14T00:47:26;10.70;;;8.23;;
16878;SDS011;8556;52.218;9.884;2023-05-14T00:49:53;12.70;;;8.10;;
16878;SDS011;8556;52.218;9.884;2023-05-14T00:52:20;12.57;;;8.63;;
16878;SDS011;8556;52.218;9.884;2023-05-14T00:54:47;11.40;;;8.47;;
16878;SDS011;8556;52.218;9.884;2023-05-14T00:57:14;11.13;;;8.67;;
16878;SDS011;8556;52.218;9.884;2023-05-14T00:59:41;11.57;;;8.60;;
16878;SDS011;8556;52.218;9.884;2023-05-14T01:02:09;11.83;;;8.67;;
16878;SDS011;8556;52.218;9.884;2023-05-14T01:04:37;11.10;;;8.60;;
16878;SDS011;8556;52.218;9.884;2023-05-14T01:07:08;13.90;;;9.07;;
16878;SDS011;8556;52.218;9.884;2023-05-14T01:09:41;10.10;;;7.47;;
16878;SDS011;8556;52.218;9.884;2023-05-14T01:12:15;13.23;;;8.00;;
16878;SDS011;8556;52.218;9.884;2023-05-14T01:14:50;11.10;;;7.73;;
16878;SDS011;8556;52.218;9.884;2023-05-14T01:17:20;9.03;;;7.57;;
16878;SDS011;8556;52.218;9.884;2023-05-14T01:19:51;11.27;;;8.10;;
16878;SDS011;8556;52.218;9.884;2023-05-14T01:22:21;11.27;;;8.33;;
16878;SDS011;8556;52.218;9.884;2023-05-14T01:24:48;11.57;;;8.20;;
16878;SDS011;8556;52.218;9.884;2023-05-14T01:27:16;11.53;;;8.07;;
16878;SDS011;8556;52.218;9.884;2023-05-14T01:29:50;11.07;;;7.77;;
16878;SDS011;8556;52.218;9.884;2023-05-14T01:32:22;10.43;;;7.80;;
16878;SDS011;8556;52.218;9.884;2023-05-14T01:34:50;11.80;;;8.40;;
16878;SDS011;8556;52.218;9.884;2023-05-14T01:37:18;12.37;;;8.33;;
16878;SDS011;8556;52.218;9.884;2023-05-14T01:39:47;12.00;;;8.80;;
16878;SDS011;8556;52.218;9.884;2023-05-14T01:42:16;12.10;;;8.43;;
16878;SDS011;8556;52.218;9.884;2023-05-14T01:44:42;14.07;;;8.07;;
16878;SDS011;8556;52.218;9.884;2023-05-14T01:47:10;8.93;;;7.97;;
16878;SDS011;8556;52.218;9.884;2023-05-14T01:49:36;11.83;;;8.27;;
16878;SDS011;8556;52.218;9.884;2023-05-14T01:52:04;13.43;;;8.03;;
16878;SDS011;8556;52.218;9.884;2023-05-14T01:54:33;11.30;;;8.70;;
16878;SDS011;8556;52.218;9.884;2023-05-14T01:57:02;10.60;;;8.43;;
16878;SDS011;8556;52.218;9.884;2023-05-14T01:59:29;10.87;;;8.00;;
16878;SDS011;8556;52.218;9.884;2023-05-14T02:01:56;11.77;;;9.00;;
16878;SDS011;8556;52.218;9.884;2023-05-14T02:04:23;13.47;;;9.33;;
16878;SDS011;8556;52.218;9.884;2023-05-14T02:06:49;13.10;;;9.07;;
16878;SDS011;8556;52.218;9.884;2023-05-14T02:09:16;14.83;;;9.23;;
16878;SDS011;8556;52.218;9.884;2023-05-14T02:11:43;10.83;;;8.60;;
16878;SDS011;8556;52.218;9.884;2023-05-14T02:14:11;11.40;;;7.97;;
16878;SDS011;8556;52.218;9.884;2023-05-14T02:16:39;11.37;;;8.63;;
16878;SDS011;8556;52.218;9.884;2023-05-14T02:19:06;11.60;;;8.43;;
16878;SDS011;8556;52.218;9.884;2023-05-14T02:21:33;11.83;;;8.33;;
16878;SDS011;8556;52.218;9.884;2023-05-14T02:24:00;11.17;;;8.60;;
16878;SDS011;8556;52.218;9.884;2023-05-14T02:26:27;12.27;;;8.07;;
16878;SDS011;8556;52.218;9.884;2023-05-14T02:28:54;10.67;;;8.20;;
16878;SDS011;8556;52.218;9.884;2023-05-14T02:31:25;12.00;;;8.23;;
16878;SDS011;8556;52.218;9.884;2023-05-14T02:33:52;13.63;;;8.57;;
16878;SDS011;8556;52.218;9.884;2023-05-14T02:36:19;12.77;;;9.03;;
16878;SDS011;8556;52.218;9.884;2023-05-14T02:38:46;10.73;;;8.33;;
16878;SDS011;8556;52.218;9.884;2023-05-14T02:41:12;15.23;;;9.67;;
16878;SDS011;8556;52.218;9.884;2023-05-14T02:43:39;11.50;;;8.73;;
16878;SDS011;8556;52.218;9.884;2023-05-14T02:46:06;11.53;;;8.33;;
16878;SDS011;8556;52.218;9.884;2023-05-14T02:48:36;11.47;;;8.40;;
16878;SDS011;8556;52.218;9.884;2023-05-14T02:51:03;12.30;;;9.00;;
16878;SDS011;8556;52.218;9.884;2023-05-14T02:53:30;11.53;;;9.13;;
16878;SDS011;8556;52.218;9.884;2023-05-14T02:55:57;11.60;;;9.27;;
16878;SDS011;8556;52.218;9.884;2023-05-14T02:58:24;12.13;;;9.27;;
16878;SDS011;8556;52.218;9.884;2023-05-14T03:00:50;12.10;;;8.60;;
16878;SDS011;8556;52.218;9.884;2023-05-14T03:03:17;12.83;;;8.80;;
16878;SDS011;8556;52.218;9.884;2023-05-14T03:05:46;12.37;;;8.90;;
16878;SDS011;8556;52.218;9.884;2023-05-14T03:08:13;11.03;;;8.33;;
16878;SDS011;8556;52.218;9.884;2023-05-14T03:10:40;13.03;;;8.70;;
16878;SDS011;8556;52.218;9.884;2023-05-14T03:13:07;9.80;;;7.87;;
16878;SDS011;8556;52.218;9.884;2023-05-14T03:15:34;13.53;;;8.67;;
16878;SDS011;8556;52.218;9.884;2023-05-14T03:18:00;10.73;;;8.40;;
16878;SDS011;8556;52.218;9.884;2023-05-14T03:20:27;11.40;;;8.47;;
16878;SDS011;8556;52.218;9.884;2023-05-14T03:22:56;10.17;;;8.00;;
16878;SDS011;8556;52.218;9.884;2023-05-14T03:25:23;10.60;;;7.37;;
16878;SDS011;8556;52.218;9.884;2023-05-14T03:27:49;10.93;;;7.20;;
16878;SDS011;8556;52.218;9.884;2023-05-14T03:30:17;10.97;;;7.43;;
16878;SDS011;8556;52.218;9.884;2023-05-14T03:32:44;10.20;;;7.80;;
16878;SDS011;8556;52.218;9.884;2023-05-14T03:35:11;11.40;;;8.17;;
16878;SDS011;8556;52.218;9.884;2023-05-14T03:37:38;13.47;;;8.13;;
16878;SDS011;8556;52.218;9.884;2023-05-14T03:40:07;13.57;;;8.73;;
16878;SDS011;8556;52.218;9.884;2023-05-14T03:42:34;10.90;;;8.13;;
16878;SDS011;8556;52.218;9.884;2023-05-14T03:45:01;11.60;;;8.10;;
16878;SDS011;8556;52.218;9.884;2023-05-14T03:47:28;13.37;;;9.23;;
16878;SDS011;8556;52.218;9.884;2023-05-14T03:49:55;14.87;;;9.20;;
16878;SDS011;8556;52.218;9.884;2023-05-14T03:52:22;13.37;;;9.10;;
16878;SDS011;8556;52.218;9.884;2023-05-14T03:54:49;14.10;;;9.37;;
16878;SDS011;8556;52.218;9.884;2023-05-14T03:57:17;12.27;;;9.20;;
16878;SDS011;8556;52.218;9.884;2023-05-14T03:59:45;13.50;;;9.23;;
16878;SDS011;8556;52.218;9.884;2023-05-14T04:02:12;12.70;;;9.07;;
16878;SDS011;8556;52.218;9.884;2023-05-14T04:04:38;12.47;;;9.63;;
16878;SDS011;8556;52.218;9.884;2023-05-14T04:07:08;13.57;;;9.50;;
16878;SDS011;8556;52.218;9.884;2023-05-14T04:09:35;14.90;;;9.97;;
16878;SDS011;8556;52.218;9.884;2023-05-14T04:12:03;11.50;;;8.20;;
16878;SDS011;8556;52.218;9.884;2023-05-14T04:14:32;11.73;;;8.97;;
16878;SDS011;8556;52.218;9.884;2023-05-14T04:17:03;12.20;;;8.00;;
16878;SDS011;8556;52.218;9.884;2023-05-14T04:19:31;12.87;;;8.70;;
16878;SDS011;8556;52.218;9.884;2023-05-14T04:21:57;13.03;;;9.63;;
16878;SDS011;8556;52.218;9.884;2023-05-14T04:24:28;11.47;;;9.00;;
16878;SDS011;8556;52.218;9.884;2023-05-14T04:26:55;12.63;;;8.93;;
16878;SDS011;8556;52.218;9.884;2023-05-14T04:29:21;16.80;;;11.40;;
16878;SDS011;8556;52.218;9.884;2023-05-14T04:31:50;14.73;;;8.77;;
16878;SDS011;8556;52.218;9.884;2023-05-14T04:34:17;11.73;;;9.17;;
16878;SDS011;8556;52.218;9.884;2023-05-14T04:36:44;13.33;;;8.70;;
16878;SDS011;8556;52.218;9.884;2023-05-14T04:39:11;12.83;;;9.60;;
16878;SDS011;8556;52.218;9.884;2023-05-14T04:41:38;14.30;;;9.13;;
16878;SDS011;8556;52.218;9.884;2023-05-14T04:44:05;12.70;;;9.10;;
16878;SDS011;8556;52.218;9.884;2023-05-14T04:46:32;11.93;;;8.90;;
16878;SDS011;8556;52.218;9.884;2023-05-14T04:49:00;11.97;;;8.27;;
16878;SDS011;8556;52.218;9.884;2023-05-14T04:51:27;10.67;;;8.50;;
16878;SDS011;8556;52.218;9.884;2023-05-14T04:53:55;11.73;;;8.37;;
16878;SDS011;8556;52.218;9.884;2023-05-14T04:56:22;11.53;;;8.57;;
16878;SDS011;8556;52.218;9.884;2023-05-14T04:58:49;12.70;;;8.80;;
16878;SDS011;8556;52.218;9.884;2023-05-14T05:01:16;12.17;;;9.03;;
16878;SDS011;8556;52.218;9.884;2023-05-14T05:03:43;11.80;;;9.00;;
16878;SDS011;8556;52.218;9.884;2023-05-14T05:06:11;11.63;;;8.43;;
16878;SDS011;8556;52.218;9.884;2023-05-14T05:08:38;11.63;;;9.13;;
16878;SDS011;8556;52.218;9.884;2023-05-14T05:11:05;13.80;;;9.60;;
16878;SDS011;8556;52.218;9.884;2023-05-14T05:13:32;15.40;;;9.80;;
16878;SDS011;8556;52.218;9.884;2023-05-14T05:15:59;14.87;;;10.57;;
16878;SDS011;8556;52.218;9.884;2023-05-14T05:18:26;15.50;;;10.00;;
16878;SDS011;8556;52.218;9.884;2023-05-14T05:20:53;17.17;;;11.17;;
16878;SDS011;8556;52.218;9.884;2023-05-14T05:23:24;16.17;;;10.03;;
16878;SDS011;8556;52.218;9.884;2023-05-14T05:25:51;13.73;;;10.00;;
16878;SDS011;8556;52.218;9.884;2023-05-14T05:28:21;14.20;;;10.47;;
16878;SDS011;8556;52.218;9.884;2023-05-14T05:30:48;12.50;;;9.30;;
16878;SDS011;8556;52.218;9.884;2023-05-14T05:33:15;12.17;;;9.53;;
16878;SDS011;8556;52.218;9.884;2023-05-14T05:35:42;13.17;;;9.47;;
16878;SDS011;8556;52.218;9.884;2023-05-14T05:38:09;14.67;;;9.97;;
16878;SDS011;8556;52.218;9.884;2023-05-14T05:40:37;13.33;;;9.70;;
16878;SDS011;8556;52.218;9.884;2023-05-14T05:43:04;13.03;;;9.33;;
16878;SDS011;8556;52.218;9.884;2023-05-14T05:45:31;13.70;;;10.03;;
16878;SDS011;8556;52.218;9.884;2023-05-14T05:47:58;13.33;;;9.60;;
16878;SDS011;8556;52.218;9.884;2023-05-14T05:50:27;12.50;;;9.57;;
16878;SDS011;8556;52.218;9.884;2023-05-14T05:52:55;12.87;;;10.33;;
16878;SDS011;8556;52.218;9.884;2023-05-14T05:55:23;19.37;;;9.87;;
16878;SDS011;8556;52.218;9.884;2023-05-14T05:57:52;13.10;;;10.07;;
16878;SDS011;8556;52.218;9.884;2023-05-14T06:00:20;11.50;;;9.23;;
16878;SDS011;8556;52.218;9.884;2023-05-14T06:02:50;12.57;;;9.27;;
16878;SDS011;8556;52.218;9.884;2023-05-14T06:08:02;11.83;;;9.43;;
16878;SDS011;8556;52.218;9.884;2023-05-14T06:10:29;15.80;;;10.87;;
16878;SDS011;8556;52.218;9.884;2023-05-14T06:12:58;14.17;;;9.33;;
16878;SDS011;8556;52.218;9.884;2023-05-14T06:15:25;11.73;;;9.87;;
16878;SDS011;8556;52.218;9.884;2023-05-14T06:17:53;13.10;;;9.77;;
16878;SDS011;8556;52.218;9.884;2023-05-14T06:20:20;15.70;;;10.33;;
16878;SDS011;8556;52.218;9.884;2023-05-14T06:22:47;15.37;;;10.77;;
16878;SDS011;8556;52.218;9.884;2023-05-14T06:25:17;15.50;;;11.10;;
16878;SDS011;8556;52.218;9.884;2023-05-14T06:27:44;16.23;;;10.93;;
16878;SDS011;8556;52.218;9.884;2023-05-14T06:30:15;15.37;;;11.07;;
16878;SDS011;8556;52.218;9.884;2023-05-14T06:32:45;13.37;;;10.27;;
16878;SDS011;8556;52.218;9.884;2023-05-14T06:35:13;15.40;;;10.07;;
16878;SDS011;8556;52.218;9.884;2023-05-14T06:37:40;14.47;;;10.40;;
16878;SDS011;8556;52.218;9.884;2023-05-14T06:40:07;13.20;;;9.63;;
16878;SDS011;8556;52.218;9.884;2023-05-14T06:42:35;13.37;;;10.00;;
16878;SDS011;8556;52.218;9.884;2023-05-14T06:45:05;16.27;;;10.40;;
16878;SDS011;8556;52.218;9.884;2023-05-14T06:47:37;14.17;;;10.63;;
16878;SDS011;8556;52.218;9.884;2023-05-14T06:50:04;13.23;;;10.30;;
16878;SDS011;8556;52.218;9.884;2023-05-14T06:52:31;13.83;;;10.33;;
16878;SDS011;8556;52.218;9.884;2023-05-14T06:55:01;15.23;;;10.20;;
16878;SDS011;8556;52.218;9.884;2023-05-14T06:57:29;12.70;;;9.67;;
16878;SDS011;8556;52.218;9.884;2023-05-14T06:59:55;11.77;;;9.40;;
16878;SDS011;8556;52.218;9.884;2023-05-14T07:02:22;13.07;;;9.67;;
16878;SDS011;8556;52.218;9.884;2023-05-14T07:04:52;14.23;;;9.90;;
16878;SDS011;8556;52.218;9.884;2023-05-14T07:07:21;14.57;;;10.27;;
16878;SDS011;8556;52.218;9.884;2023-05-14T07:09:49;12.60;;;9.73;;
16878;SDS011;8556;52.218;9.884;2023-05-14T07:12:16;15.37;;;9.53;;
16878;SDS011;8556;52.218;9.884;2023-05-14T07:14:45;14.37;;;9.47;;
16878;SDS011;8556;52.218;9.884;2023-05-14T07:17:11;14.47;;;10.13;;
16878;SDS011;8556;52.218;9.884;2023-05-14T07:19:38;14.87;;;9.50;;
16878;SDS011;8556;52.218;9.884;2023-05-14T07:22:07;12.00;;;9.17;;
16878;SDS011;8556;52.218;9.884;2023-05-14T07:24:33;13.00;;;9.93;;
16878;SDS011;8556;52.218;9.884;2023-05-14T07:27:02;14.17;;;9.73;;
16878;SDS011;8556;52.218;9.884;2023-05-14T07:29:32;14.77;;;10.50;;
16878;SDS011;8556;52.218;9.884;2023-05-14T07:31:59;14.07;;;10.70;;
16878;SDS011;8556;52.218;9.884;2023-05-14T07:34:28;12.37;;;9.30;;
16878;SDS011;8556;52.218;9.884;2023-05-14T07:36:55;13.97;;;10.47;;
16878;SDS011;8556;52.218;9.884;2023-05-14T07:39:24;12.77;;;9.67;;
16878;SDS011;8556;52.218;9.884;2023-05-14T07:41:54;14.17;;;9.93;;
16878;SDS011;8556;52.218;9.884;2023-05-14T07:44:30;12.43;;;10.00;;
16878;SDS011;8556;52.218;9.884;2023-05-14T07:47:06;14.03;;;10.60;;
16878;SDS011;8556;52.218;9.884;2023-05-14T07:49:34;13.48;;;10.13;;
16878;SDS011;8556;52.218;9.884;2023-05-14T07:52:01;14.30;;;9.67;;
16878;SDS011;8556;52.218;9.884;2023-05-14T07:54:31;13.60;;;10.50;;
16878;SDS011;8556;52.218;9.884;2023-05-14T07:57:00;12.67;;;10.13;;
16878;SDS011;8556;52.218;9.884;2023-05-14T07:59:27;12.30;;;9.03;;
16878;SDS011;8556;52.218;9.884;2023-05-14T08:01:55;13.37;;;9.97;;
16878;SDS011;8556;52.218;9.884;2023-05-14T08:04:22;14.40;;;10.93;;
16878;SDS011;8556;52.218;9.884;2023-05-14T08:06:49;14.17;;;10.27;;
16878;SDS011;8556;52.218;9.884;2023-05-14T08:09:35;15.70;;;9.88;;
16878;SDS011;8556;52.218;9.884;2023-05-14T08:12:04;13.07;;;9.18;;
16878;SDS011;8556;52.218;9.884;2023-05-14T08:14:32;12.25;;;9.82;;
16878;SDS011;8556;52.218;9.884;2023-05-14T08:16:59;12.90;;;10.43;;
16878;SDS011;8556;52.218;9.884;2023-05-14T08:19:26;13.20;;;9.85;;
16878;SDS011;8556;52.218;9.884;2023-05-14T08:21:53;16.23;;;11.15;;
16878;SDS011;8556;52.218;9.884;2023-05-14T08:24:22;11.02;;;8.68;;
16878;SDS011;8556;52.218;9.884;2023-05-14T08:26:50;12.30;;;8.87;;
16878;SDS011;8556;52.218;9.884;2023-05-14T08:29:17;10.93;;;7.88;;
16878;SDS011;8556;52.218;9.884;2023-05-14T08:31:44;12.05;;;8.35;;
16878;SDS011;8556;52.218;9.884;2023-05-14T08:34:11;11.93;;;7.78;;
16878;SDS011;8556;52.218;9.884;2023-05-14T08:36:38;12.25;;;8.32;;
16878;SDS011;8556;52.218;9.884;2023-05-14T08:39:05;9.07;;;7.15;;
16878;SDS011;8556;52.218;9.884;2023-05-14T08:41:33;8.65;;;7.38;;
16878;SDS011;8556;52.218;9.884;2023-05-14T08:44:05;7.90;;;6.50;;
16878;SDS011;8556;52.218;9.884;2023-05-14T08:46:34;9.10;;;6.90;;
16878;SDS011;8556;52.218;9.884;2023-05-14T08:49:04;8.23;;;6.10;;
16878;SDS011;8556;52.218;9.884;2023-05-14T08:51:39;6.68;;;5.40;;
16878;SDS011;8556;52.218;9.884;2023-05-14T08:54:07;7.88;;;5.60;;
16878;SDS011;8556;52.218;9.884;2023-05-14T08:56:38;5.97;;;5.13;;
16878;SDS011;8556;52.218;9.884;2023-05-14T08:59:08;6.10;;;5.43;;
16878;SDS011;8556;52.218;9.884;2023-05-14T09:01:36;5.95;;;5.35;;
16878;SDS011;8556;52.218;9.884;2023-05-14T09:04:03;6.25;;;5.65;;
16878;SDS011;8556;52.218;9.884;2023-05-14T09:06:32;8.68;;;6.80;;
16878;SDS011;8556;52.218;9.884;2023-05-14T09:09:01;8.07;;;6.10;;
16878;SDS011;8556;52.218;9.884;2023-05-14T09:11:28;7.38;;;6.50;;
16878;SDS011;8556;52.218;9.884;2023-05-14T09:13:55;9.93;;;6.93;;
16878;SDS011;8556;52.218;9.884;2023-05-14T09:16:24;9.25;;;7.18;;
16878;SDS011;8556;52.218;9.884;2023-05-14T09:18:55;9.77;;;6.65;;
16878;SDS011;8556;52.218;9.884;2023-05-14T09:21:23;8.70;;;6.63;;
16878;SDS011;8556;52.218;9.884;2023-05-14T09:23:52;6.97;;;5.90;;
16878;SDS011;8556;52.218;9.884;2023-05-14T09:26:22;6.60;;;5.50;;
16878;SDS011;8556;52.218;9.884;2023-05-14T09:28:53;7.38;;;6.05;;
16878;SDS011;8556;52.218;9.884;2023-05-14T09:31:21;7.07;;;5.75;;
16878;SDS011;8556;52.218;9.884;2023-05-14T09:33:55;8.70;;;5.43;;
16878;SDS011;8556;52.218;9.884;2023-05-14T09:36:23;7.90;;;5.57;;
16878;SDS011;8556;52.218;9.884;2023-05-14T09:38:51;6.43;;;5.55;;
16878;SDS011;8556;52.218;9.884;2023-05-14T09:41:18;5.22;;;4.60;;
16878;SDS011;8556;52.218;9.884;2023-05-14T09:43:47;6.47;;;5.88;;
16878;SDS011;8556;52.218;9.884;2023-05-14T09:46:14;6.18;;;5.05;;
16878;SDS011;8556;52.218;9.884;2023-05-14T09:48:41;7.72;;;5.05;;
16878;SDS011;8556;52.218;9.884;2023-05-14T09:51:09;6.50;;;5.78;;
16878;SDS011;8556;52.218;9.884;2023-05-14T09:53:38;6.50;;;5.15;;
16878;SDS011;8556;52.218;9.884;2023-05-14T09:56:05;6.00;;;5.32;;
16878;SDS011;8556;52.218;9.884;2023-05-14T09:58:32;6.75;;;5.47;;
16878;SDS011;8556;52.218;9.884;2023-05-14T10:00:59;7.53;;;5.20;;
16878;SDS011;8556;52.218;9.884;2023-05-14T10:03:27;7.32;;;5.28;;
16878;SDS011;8556;52.218;9.884;2023-05-14T10:05:56;5.25;;;4.65;;
16878;SDS011;8556;52.218;9.884;2023-05-14T10:08:32;6.13;;;5.25;;
16878;SDS011;8556;52.218;9.884;2023-05-14T10:11:00;7.10;;;5.47;;
16878;SDS011;8556;52.218;9.884;2023-05-14T10:13:35;8.00;;;5.80;;
16878;SDS011;8556;52.218;9.884;2023-05-14T10:16:05;8.20;;;5.78;;
16878;SDS011;8556;52.218;9.884;2023-05-14T10:18:38;7.13;;;5.22;;
16878;SDS011;8556;52.218;9.884;2023-05-14T10:21:09;6.45;;;5.13;;
16878;SDS011;8556;52.218;9.884;2023-05-14T10:23:38;7.35;;;5.30;;
16878;SDS011;8556;52.218;9.884;2023-05-14T10:26:06;6.78;;;5.18;;
16878;SDS011;8556;52.218;9.884;2023-05-14T10:28:34;6.78;;;5.05;;
16878;SDS011;8556;52.218;9.884;2023-05-14T10:31:01;6.82;;;5.55;;
16878;SDS011;8556;52.218;9.884;2023-05-14T10:33:28;6.68;;;5.20;;
16878;SDS011;8556;52.218;9.884;2023-05-14T10:35:56;6.00;;;5.30;;
16878;SDS011;8556;52.218;9.884;2023-05-14T10:38:27;6.03;;;5.30;;
16878;SDS011;8556;52.218;9.884;2023-05-14T10:40:56;8.65;;;5.82;;
16878;SDS011;8556;52.218;9.884;2023-05-14T10:43:26;6.43;;;4.97;;
16878;SDS011;8556;52.218;9.884;2023-05-14T10:45:54;5.80;;;4.88;;
16878;SDS011;8556;52.218;9.884;2023-05-14T10:48:22;5.90;;;4.70;;
16878;SDS011;8556;52.218;9.884;2023-05-14T10:50:50;6.40;;;5.10;;
16878;SDS011;8556;52.218;9.884;2023-05-14T10:53:17;7.60;;;4.57;;
16878;SDS011;8556;52.218;9.884;2023-05-14T10:55:45;6.30;;;4.72;;
16878;SDS011;8556;52.218;9.884;2023-05-14T10:58:15;5.18;;;4.53;;
16878;SDS011;8556;52.218;9.884;2023-05-14T11:00:46;6.13;;;4.85;;
16878;SDS011;8556;52.218;9.884;2023-05-14T11:03:13;6.07;;;4.63;;
16878;SDS011;8556;52.218;9.884;2023-05-14T11:05:43;6.40;;;5.18;;
16878;SDS011;8556;52.218;9.884;2023-05-14T11:08:11;6.35;;;4.88;;
16878;SDS011;8556;52.218;9.884;2023-05-14T11:10:38;6.25;;;4.60;;
16878;SDS011;8556;52.218;9.884;2023-05-14T11:13:07;5.28;;;4.78;;
16878;SDS011;8556;52.218;9.884;2023-05-14T11:15:39;5.68;;;5.00;;
16878;SDS011;8556;52.218;9.884;2023-05-14T11:18:11;8.15;;;5.28;;
16878;SDS011;8556;52.218;9.884;2023-05-14T11:20:38;5.93;;;4.93;;
16878;SDS011;8556;52.218;9.884;2023-05-14T11:23:08;12.75;;;5.65;;
16878;SDS011;8556;52.218;9.884;2023-05-14T11:25:35;6.03;;;5.15;;
16878;SDS011;8556;52.218;9.884;2023-05-14T11:28:02;7.57;;;5.03;;
16878;SDS011;8556;52.218;9.884;2023-05-14T11:30:30;7.47;;;5.90;;
16878;SDS011;8556;52.218;9.884;2023-05-14T11:32:58;5.95;;;4.80;;
16878;SDS011;8556;52.218;9.884;2023-05-14T11:35:25;5.07;;;4.57;;
16878;SDS011;8556;52.218;9.884;2023-05-14T11:37:52;5.22;;;4.70;;
16878;SDS011;8556;52.218;9.884;2023-05-14T11:40:19;5.28;;;4.43;;
16878;SDS011;8556;52.218;9.884;2023-05-14T11:42:48;6.35;;;5.30;;
16878;SDS011;8556;52.218;9.884;2023-05-14T11:45:23;5.40;;;4.90;;
16878;SDS011;8556;52.218;9.884;2023-05-14T11:47:51;5.47;;;4.60;;
16878;SDS011;8556;52.218;9.884;2023-05-14T11:50:22;5.47;;;4.97;;
16878;SDS011;8556;52.218;9.884;2023-05-14T11:52:49;6.07;;;5.10;;
16878;SDS011;8556;52.218;9.884;2023-05-14T11:55:20;5.07;;;4.53;;
16878;SDS011;8556;52.218;9.884;2023-05-14T11:57:47;6.13;;;4.85;;
16878;SDS011;8556;52.218;9.884;2023-05-14T12:00:15;5.60;;;5.00;;
16878;SDS011;8556;52.218;9.884;2023-05-14T12:02:46;5.72;;;4.57;;
16878;SDS011;8556;52.218;9.884;2023-05-14T12:05:15;5.93;;;4.88;;
16878;SDS011;8556;52.218;9.884;2023-05-14T12:07:44;5.82;;;5.07;;
16878;SDS011;8556;52.218;9.884;2023-05-14T12:10:12;5.07;;;4.57;;
16878;SDS011;8556;52.218;9.884;2023-05-14T12:12:43;4.75;;;4.35;;
16878;SDS011;8556;52.218;9.884;2023-05-14T12:15:11;5.75;;;4.50;;
16878;SDS011;8556;52.218;9.884;2023-05-14T12:17:39;4.32;;;3.72;;
16878;SDS011;8556;52.218;9.884;2023-05-14T12:20:07;5.68;;;4.63;;
16878;SDS011;8556;52.218;9.884;2023-05-14T12:22:36;4.18;;;3.78;;
16878;SDS011;8556;52.218;9.884;2023-05-14T12:25:09;4.38;;;3.88;;
16878;SDS011;8556;52.218;9.884;2023-05-14T12:27:37;6.03;;;4.43;;
16878;SDS011;8556;52.218;9.884;2023-05-14T12:30:05;5.28;;;4.28;;
16878;SDS011;8556;52.218;9.884;2023-05-14T12:32:33;5.18;;;3.90;;
16878;SDS011;8556;52.218;9.884;2023-05-14T12:35:01;4.28;;;3.95;;
16878;SDS011;8556;52.218;9.884;2023-05-14T12:37:28;5.80;;;4.43;;
16878;SDS011;8556;52.218;9.884;2023-05-14T12:39:57;7.03;;;4.00;;
16878;SDS011;8556;52.218;9.884;2023-05-14T12:42:26;5.22;;;4.57;;
16878;SDS011;8556;52.218;9.884;2023-05-14T12:44:53;5.75;;;4.45;;
16878;SDS011;8556;52.218;9.884;2023-05-14T12:47:19;4.57;;;4.10;;
16878;SDS011;8556;52.218;9.884;2023-05-14T12:49:46;6.53;;;4.70;;
16878;SDS011;8556;52.218;9.884;2023-05-14T12:52:13;4.95;;;3.53;;
16878;SDS011;8556;52.218;9.884;2023-05-14T12:54:40;7.75;;;4.28;;
16878;SDS011;8556;52.218;9.884;2023-05-14T12:57:10;5.65;;;4.50;;
16878;SDS011;8556;52.218;9.884;2023-05-14T12:59:38;5.60;;;4.80;;
16878;SDS011;8556;52.218;9.884;2023-05-14T13:02:08;6.38;;;4.68;;
16878;SDS011;8556;52.218;9.884;2023-05-14T13:04:37;5.10;;;4.15;;
16878;SDS011;8556;52.218;9.884;2023-05-14T13:07:07;4.72;;;4.20;;
16878;SDS011;8556;52.218;9.884;2023-05-14T13:09:36;5.13;;;4.63;;
16878;SDS011;8556;52.218;9.884;2023-05-14T13:12:04;5.22;;;4.03;;
16878;SDS011;8556;52.218;9.884;2023-05-14T13:14:31;4.93;;;4.38;;
16878;SDS011;8556;52.218;9.884;2023-05-14T13:17:01;5.95;;;4.28;;
16878;SDS011;8556;52.218;9.884;2023-05-14T13:19:31;4.47;;;4.07;;
16878;SDS011;8556;52.218;9.884;2023-05-14T13:21:57;6.32;;;4.85;;
16878;SDS011;8556;52.218;9.884;2023-05-14T13:24:24;6.00;;;4.60;;
16878;SDS011;8556;52.218;9.884;2023-05-14T13:26:51;10.00;;;5.25;;
16878;SDS011;8556;52.218;9.884;2023-05-14T13:29:18;7.03;;;4.55;;
16878;SDS011;8556;52.218;9.884;2023-05-14T13:31:45;5.05;;;4.32;;
16878;SDS011;8556;52.218;9.884;2023-05-14T13:34:13;5.25;;;4.38;;
16878;SDS011;8556;52.218;9.884;2023-05-14T13:36:40;5.88;;;4.50;;
16878;SDS011;8556;52.218;9.884;2023-05-14T13:39:10;6.05;;;4.63;;
16878;SDS011;8556;52.218;9.884;2023-05-14T13:41:37;8.27;;;4.72;;
16878;SDS011;8556;52.218;9.884;2023-05-14T13:44:04;6.20;;;4.65;;
16878;SDS011;8556;52.218;9.884;2023-05-14T13:46:31;5.32;;;4.32;;
16878;SDS011;8556;52.218;9.884;2023-05-14T13:48:58;6.15;;;4.43;;
16878;SDS011;8556;52.218;9.884;2023-05-14T13:51:26;5.22;;;4.72;;
16878;SDS011;8556;52.218;9.884;2023-05-14T13:53:53;3.60;;;3.30;;
16878;SDS011;8556;52.218;9.884;2023-05-14T13:56:20;3.70;;;3.40;;
16878;SDS011;8556;52.218;9.884;2023-05-14T13:58:47;5.03;;;3.35;;
16878;SDS011;8556;52.218;9.884;2023-05-14T14:01:14;5.55;;;4.10;;
16878;SDS011;8556;52.218;9.884;2023-05-14T14:03:41;4.80;;;3.53;;
16878;SDS011;8556;52.218;9.884;2023-05-14T14:06:08;4.47;;;3.40;;
16878;SDS011;8556;52.218;9.884;2023-05-14T14:08:36;3.83;;;3.53;;
16878;SDS011;8556;52.218;9.884;2023-05-14T14:11:05;3.80;;;3.50;;
16878;SDS011;8556;52.218;9.884;2023-05-14T14:13:35;4.55;;;4.13;;
16878;SDS011;8556;52.218;9.884;2023-05-14T14:16:04;4.88;;;4.07;;
16878;SDS011;8556;52.218;9.884;2023-05-14T14:18:32;4.22;;;3.63;;
16878;SDS011;8556;52.218;9.884;2023-05-14T14:21:13;4.13;;;3.55;;
16878;SDS011;8556;52.218;9.884;2023-05-14T14:23:43;4.90;;;3.58;;
16878;SDS011;8556;52.218;9.884;2023-05-14T14:26:11;6.57;;;3.25;;
16878;SDS011;8556;52.218;9.884;2023-05-14T14:28:38;3.92;;;3.53;;
16878;SDS011;8556;52.218;9.884;2023-05-14T14:31:07;4.07;;;3.60;;
16878;SDS011;8556;52.218;9.884;2023-05-14T14:33:36;9.45;;;4.50;;
16878;SDS011;8556;52.218;9.884;2023-05-14T14:36:08;4.97;;;4.38;;
16878;SDS011;8556;52.218;9.884;2023-05-14T14:38:55;4.68;;;4.10;;
16878;SDS011;8556;52.218;9.884;2023-05-14T14:41:22;4.97;;;4.47;;
16878;SDS011;8556;52.218;9.884;2023-05-14T14:43:50;5.47;;;4.78;;
16878;SDS011;8556;52.218;9.884;2023-05-14T14:46:17;4.90;;;4.50;;
16878;SDS011;8556;52.218;9.884;2023-05-14T14:48:44;6.65;;;5.03;;
16878;SDS011;8556;52.218;9.884;2023-05-14T14:51:11;5.00;;;4.50;;
16878;SDS011;8556;52.218;9.884;2023-05-14T14:53:38;5.32;;;4.30;;
16878;SDS011;8556;52.218;9.884;2023-05-14T14:56:07;6.53;;;4.90;;
16878;SDS011;8556;52.218;9.884;2023-05-14T14:58:33;7.82;;;5.60;;
16878;SDS011;8556;52.218;9.884;2023-05-14T15:01:00;5.60;;;5.10;;